Time;durP1;ratioP1;P1;durP2;ratioP2;P2;SDS_P1;SDS_P2;PMS_P1;PMS_P2;Temp;Humidity;BMP_temperature;BMP_pressure;BME280_temperature;BME280_humidity;BME280_pressure;Samples;Min_cycle;Max_cycle;Signal;HPM_P1;HPM_P2
2022/05/15 00:02:45;;;;;;;6.40;1.55;;;14.00;99.90;;;;;;20446537;28;20042;-40
2022/05/15 00:12:46;;;;;;;6.40;1.88;;;13.80;99.90;;;;;;20429469;28;20144;-40
2022/05/15 00:22:47;;;;;;;9.52;3.65;;;13.70;99.90;;;;;;20418597;28;20063;-40
2022/05/15 00:32:50;;;;;;;5.55;1.60;;;13.60;99.90;;;;;;20434484;28;20064;-40
2022/05/15 00:42:51;;;;;;;5.15;1.50;;;13.50;99.90;;;;;;20445460;28;20376;-40
2022/05/15 00:52:57;;;;;;;4.40;1.85;;;13.40;99.90;;;;;;20435607;28;20047;-40
2022/05/15 01:03:00;;;;;;;5.03;1.80;;;13.20;99.90;;;;;;20439960;28;20093;-40
2022/05/15 01:13:01;;;;;;;4.93;1.77;;;13.20;99.90;;;;;;20436323;28;20049;-39
2022/05/15 01:23:02;;;;;;;5.78;2.13;;;13.10;99.90;;;;;;20437426;28;20047;-39
2022/05/15 01:33:05;;;;;;;9.10;1.83;;;13.10;99.90;;;;;;20437285;28;20464;-39
2022/05/15 01:43:08;;;;;;;5.03;1.80;;;12.90;99.90;;;;;;20423022;28;20039;-39
2022/05/15 01:53:09;;;;;;;8.65;1.70;;;12.90;99.90;;;;;;20423486;28;20058;-39
2022/05/15 02:03:10;;;;;;;4.63;1.50;;;12.80;99.90;;;;;;20444617;28;20031;-39
2022/05/15 02:13:12;;;;;;;3.22;1.58;;;12.70;99.90;;;;;;20430183;28;20051;-40
2022/05/15 02:23:13;;;;;;;5.22;1.75;;;12.50;99.90;;;;;;20420043;28;20040;-40
2022/05/15 02:43:17;;;;;;;8.40;2.05;;;12.30;99.90;;;;;;20538310;28;20055;-78
2022/05/15 02:53:18;;;;;;;7.10;3.03;;;12.20;99.90;;;;;;20541346;28;20043;-79
2022/05/15 03:03:19;;;;;;;4.85;1.50;;;12.30;99.90;;;;;;20549840;28;20053;-79
2022/05/15 03:13:20;;;;;;;8.05;1.63;;;12.20;99.90;;;;;;20538541;28;20047;-79
2022/05/15 03:23:21;;;;;;;3.45;1.83;;;12.10;99.90;;;;;;20539989;28;20037;-79
2022/05/15 03:33:22;;;;;;;11.73;2.03;;;11.80;99.90;;;;;;20530868;28;20415;-79
2022/05/15 03:43:23;;;;;;;3.72;1.45;;;11.90;99.90;;;;;;20468088;28;20043;-79
2022/05/15 03:53:25;;;;;;;3.40;1.58;;;11.90;99.90;;;;;;20458896;28;20063;-79
2022/05/15 04:03:26;;;;;;;5.40;2.05;;;11.90;99.90;;;;;;20446035;28;20040;-78
2022/05/15 04:13:27;;;;;;;5.55;1.45;;;11.80;99.90;;;;;;20447874;28;20051;-79
2022/05/15 04:23:29;;;;;;;6.45;1.73;;;11.70;99.90;;;;;;20450756;28;20482;-79
2022/05/15 04:33:30;;;;;;;4.03;1.50;;;11.60;99.90;;;;;;20452053;28;20540;-79
2022/05/15 04:43:31;;;;;;;4.60;1.60;;;11.60;99.90;;;;;;20458775;28;20380;-79
2022/05/15 04:53:33;;;;;;;6.43;2.00;;;11.70;99.90;;;;;;20471402;28;20325;-79
2022/05/15 05:03:34;;;;;;;8.85;2.22;;;12.10;99.90;;;;;;20444690;28;20036;-79
2022/05/15 05:13:35;;;;;;;5.47;1.80;;;12.30;99.90;;;;;;20468205;28;20419;-79
2022/05/15 05:23:36;;;;;;;5.38;2.03;;;12.50;99.90;;;;;;20462617;28;20038;-79
2022/05/15 05:33:37;;;;;;;6.22;1.85;;;12.80;99.90;;;;;;20472065;28;20066;-79
2022/05/15 05:43:38;;;;;;;9.52;2.50;;;13.00;99.90;;;;;;20466313;28;20255;-79
2022/05/15 05:53:40;;;;;;;4.40;1.80;;;13.30;99.90;;;;;;20467158;28;20058;-79
2022/05/15 06:14:01;;;;;;;5.60;1.27;;;14.10;99.90;;;;;;20470755;28;20057;-79
2022/05/15 06:24:02;;;;;;;3.45;1.65;;;14.10;99.90;;;;;;20461563;28;20050;-79
2022/05/15 06:34:04;;;;;;;4.03;1.60;;;14.60;99.90;;;;;;20463189;28;20053;-79
2022/05/15 06:44:05;;;;;;;3.10;1.20;;;15.00;99.90;;;;;;20460545;28;20032;-79
2022/05/15 06:54:06;;;;;;;4.35;1.50;;;15.20;99.90;;;;;;20467486;28;20049;-79
2022/05/15 07:04:07;;;;;;;3.10;1.60;;;15.70;99.90;;;;;;20466725;28;20198;-79
2022/05/15 07:14:09;;;;;;;3.95;1.10;;;16.00;99.90;;;;;;20464541;28;20394;-79
2022/05/15 07:24:10;;;;;;;7.13;1.38;;;16.30;99.90;;;;;;20463064;28;20028;-79
2022/05/15 07:34:11;;;;;;;4.55;1.67;;;16.30;99.90;;;;;;20463233;28;20242;-79
2022/05/15 07:44:12;;;;;;;5.57;2.53;;;16.50;99.90;;;;;;20464084;28;20031;-79
2022/05/15 07:54:16;;;;;;;8.35;2.00;;;16.60;99.90;;;;;;20458263;28;20040;-79
2022/05/15 08:04:18;;;;;;;12.02;2.42;;;17.10;99.90;;;;;;20461778;28;20487;-79
2022/05/15 08:14:20;;;;;;;2.90;1.30;;;17.50;99.90;;;;;;20470180;28;20058;-79
2022/05/15 08:24:23;;;;;;;3.58;1.10;;;17.90;99.90;;;;;;20481655;28;20059;-79
2022/05/15 08:34:25;;;;;;;4.50;1.60;;;18.30;99.90;;;;;;20478738;28;20073;-79
2022/05/15 08:44:33;;;;;;;5.93;1.60;;;18.80;99.90;;;;;;20486990;28;20044;-79
2022/05/15 08:54:39;;;;;;;6.78;1.88;;;19.20;99.90;;;;;;20486118;28;20044;-79
2022/05/15 09:04:40;;;;;;;7.70;2.95;;;19.70;99.90;;;;;;20476233;28;20043;-79
2022/05/15 09:14:57;;;;;;;5.57;2.30;;;20.30;99.90;;;;;;20463796;28;20451;-80
2022/05/15 09:24:59;;;;;;;3.73;1.33;;;20.70;99.90;;;;;;20480190;28;20039;-80
2022/05/15 09:35:02;;;;;;;5.88;1.67;;;21.10;99.90;;;;;;20480623;28;20058;-79
2022/05/15 09:45:18;;;;;;;5.47;1.50;;;21.40;99.90;;;;;;20475393;28;20255;-80
2022/05/15 09:55:23;;;;;;;6.05;1.67;;;21.90;99.90;;;;;;20483676;28;20055;-79
2022/05/15 10:05:28;;;;;;;9.55;1.85;;;22.10;99.60;;;;;;20474886;28;20043;-79
2022/05/15 10:15:38;;;;;;;3.75;2.17;;;22.50;97.30;;;;;;20480441;28;20047;-80
2022/05/15 10:25:52;;;;;;;1.70;0.70;;;22.70;96.20;;;;;;20481814;28;20044;-80
2022/05/15 10:36:01;;;;;;;2.47;1.17;;;23.10;93.30;;;;;;20468329;28;20344;-80
2022/05/15 10:46:27;;;;;;;4.22;1.17;;;23.40;94.70;;;;;;20481118;28;20495;-80
2022/05/15 11:07:29;;;;;;;3.50;1.20;;;24.00;93.90;;;;;;20472906;28;20587;-80
2022/05/15 11:18:11;;;;;;;3.28;0.90;;;24.00;91.80;;;;;;20474409;28;20057;-80
2022/05/15 11:28:27;;;;;;;2.88;1.27;;;24.50;90.30;;;;;;20459359;28;20031;-80
2022/05/15 11:38:29;;;;;;;2.40;1.00;;;24.60;90.20;;;;;;20448177;28;20059;-80
2022/05/15 11:48:32;;;;;;;3.25;1.67;;;25.30;86.90;;;;;;20478356;28;20369;-79
2022/05/15 11:58:41;;;;;;;2.03;0.80;;;25.20;88.80;;;;;;20485854;28;20131;-80
2022/05/15 12:08:42;;;;;;;2.05;1.10;;;25.50;89.90;;;;;;20488539;28;20672;-80
2022/05/15 12:18:46;;;;;;;1.98;0.93;;;26.20;85.20;;;;;;20486707;28;20028;-80
2022/05/15 12:29:04;;;;;;;2.40;0.98;;;26.60;82.50;;;;;;20488175;28;20203;-80
2022/05/15 12:39:07;;;;;;;;;;;26.40;81.40;;;;;;20490677;28;20047;-80
2022/05/15 12:49:09;;;;;;;1.60;0.60;;;26.20;78.80;;;;;;20488152;28;19918;-80
2022/05/15 12:59:18;;;;;;;1.35;0.70;;;26.40;76.50;;;;;;20488577;28;20035;-80
2022/05/15 13:09:22;;;;;;;1.83;0.70;;;26.30;75.40;;;;;;20499131;28;20444;-80
2022/05/15 13:19:36;;;;;;;6.18;1.40;;;26.00;76.20;;;;;;20500929;28;20071;-79
2022/05/15 13:29:38;;;;;;;1.00;0.80;;;26.40;73.60;;;;;;20493042;28;20111;-80
2022/05/15 13:50:04;;;;;;;2.65;0.80;;;26.60;72.90;;;;;;20483648;28;20132;-80
2022/05/15 14:00:10;;;;;;;1.63;0.80;;;26.50;73.80;;;;;;20493755;28;20091;-80
2022/05/15 14:10:14;;;;;;;3.33;1.00;;;26.40;74.90;;;;;;20494936;28;20046;-80
2022/05/15 14:20:28;;;;;;;3.15;0.85;;;27.00;74.20;;;;;;20486056;28;20487;-80
2022/05/15 14:30:30;;;;;;;2.65;1.02;;;27.00;74.30;;;;;;20506793;28;20126;-80
2022/05/15 14:40:34;;;;;;;1.90;0.60;;;26.50;70.40;;;;;;20470563;28;20047;-81
2022/05/15 15:00:46;;;;;;;3.92;1.73;;;25.90;70.80;;;;;;20809160;23;20177;-79
2022/05/15 15:10:48;;;;;;;1.77;0.88;;;26.10;71.10;;;;;;20557216;28;20493;-78
2022/05/15 15:20:51;;;;;;;4.75;0.90;;;25.70;72.10;;;;;;20556567;28;20049;-78
2022/05/15 15:30:52;;;;;;;1.70;0.90;;;25.90;72.30;;;;;;20566947;28;20061;-79
2022/05/15 15:40:57;;;;;;;3.47;1.27;;;26.00;72.10;;;;;;20567413;28;20049;-78
2022/05/15 15:51:23;;;;;;;2.00;1.00;;;25.90;70.20;;;;;;20570800;28;20532;-79
2022/05/15 16:01:30;;;;;;;3.30;0.80;;;26.00;72.00;;;;;;20474274;28;20061;-78
2022/05/15 16:11:32;;;;;;;2.38;0.90;;;25.80;69.40;;;;;;20490252;28;20046;-78
2022/05/15 16:21:44;;;;;;;5.25;1.10;;;25.70;69.60;;;;;;20499098;28;20043;-78
2022/05/15 16:31:47;;;;;;;1.85;1.25;;;25.70;68.70;;;;;;20494384;28;20053;-79
2022/05/15 16:41:48;;;;;;;2.65;1.25;;;25.40;69.90;;;;;;20511970;28;20047;-78
2022/05/15 16:51:49;;;;;;;1.50;0.57;;;25.20;70.20;;;;;;20505615;28;20050;-78
2022/05/15 17:01:51;;;;;;;5.55;1.00;;;25.20;68.60;;;;;;20586040;28;20093;-78
2022/05/15 17:11:53;;;;;;;1.20;0.50;;;25.10;68.90;;;;;;20575989;28;20077;-78
2022/05/15 17:21:55;;;;;;;2.97;1.40;;;25.00;68.60;;;;;;20570592;28;20039;-79
2022/05/15 17:42:15;;;;;;;1.67;0.60;;;24.80;69.60;;;;;;20574395;28;20061;-79
2022/05/15 17:52:18;;;;;;;4.13;1.10;;;24.70;70.60;;;;;;20556359;28;20057;-79
2022/05/15 18:02:19;;;;;;;3.35;1.10;;;24.70;71.70;;;;;;20570003;28;20035;-79
2022/05/15 18:12:20;;;;;;;2.60;1.20;;;24.40;70.90;;;;;;20539480;28;20058;-78
2022/05/15 18:22:22;;;;;;;3.28;1.02;;;24.30;71.70;;;;;;20564433;28;20038;-78
2022/05/15 18:32:24;;;;;;;4.35;0.98;;;24.10;74.90;;;;;;20542704;28;20066;-79
2022/05/15 18:42:29;;;;;;;2.75;1.15;;;23.80;76.30;;;;;;20558936;28;20054;-78
2022/05/15 19:02:55;;;;;;;1.70;0.90;;;23.30;77.70;;;;;;20557625;28;20045;-78
2022/05/15 19:12:57;;;;;;;2.10;0.80;;;23.00;78.00;;;;;;20546238;28;20097;-78
2022/05/15 19:22:58;;;;;;;2.25;1.23;;;22.80;79.30;;;;;;20545213;28;20069;-78
2022/05/15 19:32:59;;;;;;;1.63;0.80;;;22.60;81.00;;;;;;20565967;28;20047;-78
2022/05/15 19:43:01;;;;;;;4.78;0.90;;;22.30;81.60;;;;;;20530082;28;20129;-78
2022/05/15 19:53:02;;;;;;;1.73;0.80;;;21.90;82.00;;;;;;20545150;28;20146;-78
2022/05/15 20:03:03;;;;;;;2.35;0.75;;;21.90;83.40;;;;;;20563368;28;20050;-78
2022/05/15 20:13:05;;;;;;;1.60;0.70;;;21.60;84.80;;;;;;20544273;28;20063;-78
2022/05/15 20:23:06;;;;;;;7.45;1.08;;;21.40;84.50;;;;;;20562091;28;20030;-78
2022/05/15 20:33:07;;;;;;;1.70;0.82;;;21.10;87.60;;;;;;20591386;28;20050;-79
2022/05/15 20:43:08;;;;;;;11.82;1.45;;;20.90;89.30;;;;;;20556990;28;20062;-79
2022/05/15 20:53:09;;;;;;;1.50;0.93;;;20.70;90.00;;;;;;20547758;28;20055;-78
2022/05/15 21:03:10;;;;;;;1.80;0.80;;;20.50;90.50;;;;;;20541614;28;20038;-79
2022/05/15 21:13:12;;;;;;;2.00;1.13;;;20.20;91.30;;;;;;20570279;28;20050;-78
2022/05/15 21:23:14;;;;;;;2.15;0.80;;;20.00;91.30;;;;;;20575151;28;20038;-79
2022/05/15 21:33:15;;;;;;;4.72;1.65;;;19.80;90.50;;;;;;20581156;28;20042;-80
2022/05/15 21:43:32;;;;;;;3.20;1.05;;;19.80;90.40;;;;;;20568345;28;20043;-79
2022/05/15 21:53:33;;;;;;;2.03;1.08;;;19.80;90.40;;;;;;20588000;28;20062;-78
2022/05/15 22:03:35;;;;;;;1.70;0.95;;;19.80;90.50;;;;;;20594672;28;20069;-79
2022/05/15 22:13:37;;;;;;;4.30;1.55;;;19.80;90.70;;;;;;20589003;28;20525;-79
2022/05/15 22:23:38;;;;;;;1.40;0.60;;;19.70;91.00;;;;;;20568000;28;20046;-79
2022/05/15 22:33:41;;;;;;;4.70;2.15;;;19.70;91.50;;;;;;20583923;28;20050;-78
2022/05/15 22:43:45;;;;;;;2.97;0.80;;;19.60;92.00;;;;;;20568560;28;20045;-79
2022/05/15 22:53:46;;;;;;;2.30;1.15;;;19.40;92.30;;;;;;20538270;28;20043;-78
2022/05/15 23:03:47;;;;;;;3.35;1.00;;;19.20;92.70;;;;;;20579827;28;20429;-78
2022/05/15 23:13:48;;;;;;;1.75;0.68;;;19.20;92.80;;;;;;20616161;28;20125;-79
2022/05/15 23:23:49;;;;;;;3.70;0.90;;;19.20;93.00;;;;;;20563603;28;20039;-78
2022/05/15 23:33:50;;;;;;;2.65;1.17;;;19.00;93.20;;;;;;20550713;28;21738;-78
2022/05/15 23:43:51;;;;;;;3.17;1.00;;;18.90;93.90;;;;;;20561853;28;20057;-78
2022/05/15 23:53:52;;;;;;;2.13;1.15;;;18.80;93.90;;;;;;20548754;28;20038;-78
